Latest Weather Observations for Esperance

IDW60801

Issued at 7:35 am WST Friday 19 September 2014 (issued every 30 minutes, with the page automatically refreshed every 10 minutes)

About weather observations | Map of weather stations | Latest weather observations for WA | Other Formats
Station Details ID: 009789 Name: ESPERANCE Lat: -33.83 Lon: 121.89 Height: 25.0 m
Data from the previous 72 hours. | See also: Recent months at Esperance
Date/Time
WST
Temp
°C
App
Temp
°C
Dew
Point
Rel
Hum
%
Delta-T
°C
Wind Press
QNH
hPa
Press
MSL
hPa
Rain
since 9 am
mm
Dir
 
Spd
km/h
Gust
km/h
Spd
kts
Gust
kts
19/07:30am 17.5 15.9 14.0 80 2.0 SW 15 22 8 12 1021.3 1021.3 0.0
19/07:00am 16.3 15.0 13.8 85 1.4 SW 13 17 7 9 1021.0 1021.0 0.0
19/06:30am 15.8 14.5 13.7 87 1.2 SW 13 17 7 9 1020.5 1020.5 0.0
19/06:00am 14.6 14.0 13.5 93 0.6 W 9 11 5 6 1019.8 1019.7 0.0
19/05:30am 14.8 13.9 13.7 93 0.6 NW 11 15 6 8 1019.3 1019.2 0.0
19/05:00am 15.5 15.2 14.3 92 0.7 WNW 9 13 5 7 1019.0 1018.9 0.0
19/04:30am 15.8 15.3 14.8 94 0.6 W 11 17 6 9 1018.7 1018.6 0.0
19/04:00am 15.7 15.2 14.8 94 0.5 WNW 11 19 6 10 1018.3 1018.2 0.0
19/03:41am 15.7 14.0 14.8 94 0.5 WNW 17 24 9 13 1018.1 1018.0 0.0
19/03:30am 15.5 13.4 14.6 94 0.5 WNW 19 26 10 14 1018.0 1017.9 0.0
19/03:17am 15.0 13.1 14.3 96 0.4 WNW 17 22 9 12 1017.9 1017.8 0.0
19/03:00am 14.6 12.5 13.5 93 0.6 WNW 17 26 9 14 1017.7 1017.6 0.0
19/02:47am 14.3 11.4 12.8 91 0.8 WNW 20 30 11 16 1017.7 1017.6 0.0
19/02:30am 15.1 12.4 9.0 67 3.1 WNW 13 20 7 11 1017.5 1017.4 0.0
19/02:00am 16.0 13.2 8.5 61 3.8 WNW 13 17 7 9 1017.3 1017.2 0.0
19/01:30am 16.2 12.8 9.0 62 3.7 WNW 17 26 9 14 1017.0 1016.9 0.0
19/01:00am 15.7 11.5 9.7 67 3.1 N 22 32 12 17 1015.8 1015.7 0.0
19/12:30am 15.4 11.8 10.0 70 2.8 NNE 19 28 10 15 1015.8 1015.7 0.0
19/12:00am 15.7 11.6 10.0 69 3.0 NNE 22 30 12 16 1016.0 1015.9 0.0
 
Date/Time
WST
Temp
°C
App
Temp
°C
Dew
Point
Rel
Hum
%
Delta-T
°C
Wind Press
QNH
hPa
Press
MSL
hPa
Rain
since 9 am
mm
Dir
 
Spd
km/h
Gust
km/h
Spd
kts
Gust
kts
18/11:30pm 15.8 12.8 10.5 71 2.8 N 17 20 9 11 1015.9 1015.8 0.0
18/11:00pm 16.4 12.7 10.1 66 3.3 NNE 20 26 11 14 1015.8 1015.7 0.0
18/10:30pm 16.5 13.4 10.3 67 3.3 NNE 17 20 9 11 1016.1 1016.0 0.0
18/10:00pm 16.8 13.7 10.4 66 3.4 NNE 17 26 9 14 1016.5 1016.4 0.0
18/09:30pm 17.2 14.1 10.4 64 3.6 NNE 17 24 9 13 1016.4 1016.3 0.0
18/09:00pm 17.9 14.3 10.4 61 4.0 NE 20 30 11 16 1016.3 1016.2 0.0
18/08:30pm 17.9 15.6 10.6 62 3.9 NE 13 17 7 9 1016.4 1016.3 0.0
18/08:00pm 18.4 15.5 9.7 57 4.6 ENE 15 20 8 11 1016.3 1016.2 0.0
18/07:30pm 18.6 15.9 9.0 53 5.0 E 13 17 7 9 1016.0 1015.9 0.0
18/07:00pm 18.5 17.0 12.0 66 3.6 E 11 17 6 9 1015.8 1015.7 0.0
18/06:30pm 18.6 17.4 13.9 74 2.7 ESE 13 17 7 9 1015.5 1015.4 0.0
18/06:00pm 19.0 17.5 14.1 73 2.8 ESE 15 20 8 11 1015.2 1015.2 0.0
18/05:30pm 19.5 17.5 13.9 70 3.2 ESE 17 22 9 12 1015.2 1015.2 0.0
18/05:00pm 20.2 17.9 14.0 67 3.6 ESE 19 26 10 14 1015.0 1015.0 0.0
18/04:30pm 21.0 18.6 13.7 63 4.2 ESE 19 22 10 12 1014.8 1014.8 0.0
18/04:00pm 22.8 19.7 12.2 51 6.0 ESE 20 26 11 14 1014.7 1014.7 0.0
18/03:30pm 26.3 22.6 6.3 28 10.4 NE 15 22 8 12 1014.6 1014.6 0.0
18/03:00pm 26.7 22.8 5.2 25 11.0 NE 15 28 8 15 1014.7 1014.7 0.0
18/02:30pm 26.9 22.9 6.5 27 10.7 NE 17 28 9 15 1015.0 1015.0 0.0
18/02:00pm 26.5 22.4 6.4 27 10.5 E 17 26 9 14 1015.3 1015.3 0.0
18/01:30pm 27.0 22.9 6.4 27 10.8 NE 17 28 9 15 1015.9 1015.8 0.0
18/01:00pm 26.2 22.3 7.0 29 10.1 NNE 17 24 9 13 1016.2 1016.1 0.0
18/12:30pm 25.9 22.0 7.1 30 9.9 NNE 17 28 9 15 1016.6 1016.5 0.0
18/12:00pm 25.0 20.1 6.7 31 9.5 NNE 22 30 12 16 1017.2 1017.1 0.0
18/11:30am 24.5 20.7 7.6 34 8.9 NNE 17 28 9 15 1017.7 1017.6 0.0
18/11:00am 23.9 19.9 8.3 37 8.3 NNE 19 28 10 15 1018.1 1018.0 0.0
18/10:30am 23.4 20.1 9.6 41 7.5 NNE 17 22 9 12 1018.5 1018.4 0.0
18/10:00am 21.8 18.1 9.3 45 6.7 N 19 24 10 13 1018.8 1018.7 0.0
18/09:30am 20.1 16.1 8.9 48 5.9 N 20 28 11 15 1018.9 1018.8 0.0
18/09:00am 18.8 14.4 8.8 52 5.2 N 22 32 12 17 1019.3 1019.2 0.4
18/08:30am 17.5 13.1 8.8 56 4.5 N 22 33 12 18 1019.5 1019.4 0.4
18/08:00am 16.3 11.9 8.9 61 3.8 N 22 32 12 17 1019.6 1019.5 0.4
18/07:30am 15.2 10.3 8.5 64 3.4 N 24 37 13 20 1019.5 1019.4 0.4
18/07:00am 14.5 9.6 8.5 67 3.0 N 24 32 13 17 1019.5 1019.4 0.4
18/06:30am 14.0 9.1 8.6 70 2.7 N 24 37 13 20 1019.2 1019.1 0.4
18/06:00am 13.7 9.2 8.7 72 2.5 N 22 30 12 16 1018.9 1018.8 0.4
18/05:30am 14.0 9.9 8.6 70 2.7 N 20 28 11 15 1018.8 1018.7 0.4
18/05:00am 14.5 10.3 8.3 66 3.1 NNE 20 30 11 16 1018.5 1018.4 0.4
18/04:30am 14.8 10.2 8.2 64 3.3 NNE 22 33 12 18 1018.4 1018.3 0.4
18/04:00am 14.9 10.8 8.6 66 3.2 N 20 28 11 15 1018.3 1018.2 0.4
18/03:30am 15.3 10.8 8.4 63 3.5 N 22 32 12 17 1018.1 1018.0 0.4
18/03:00am 15.7 11.3 8.8 63 3.5 N 22 32 12 17 1018.2 1018.1 0.4
18/02:30am 15.9 11.1 8.9 63 3.6 NNE 24 35 13 19 1018.1 1018.0 0.4
18/02:00am 15.8 11.5 9.2 65 3.4 N 22 33 12 18 1018.2 1018.1 0.4
18/01:30am 15.6 11.9 9.4 66 3.2 N 19 26 10 14 1018.3 1018.2 0.4
18/01:00am 15.2 11.6 10.0 71 2.7 NNE 19 26 10 14 1018.5 1018.4 0.4
18/12:30am 15.6 11.8 9.8 68 3.0 NNE 20 32 11 17 1018.7 1018.6 0.4
18/12:00am 15.6 11.6 10.3 70 2.8 NNE 22 33 12 18 1019.1 1019.0 0.4
 
Date/Time
WST
Temp
°C
App
Temp
°C
Dew
Point
Rel
Hum
%
Delta-T
°C
Wind Press
QNH
hPa
Press
MSL
hPa
Rain
since 9 am
mm
Dir
 
Spd
km/h
Gust
km/h
Spd
kts
Gust
kts
17/11:30pm 15.4 10.1 10.0 70 2.8 N 28 44 15 24 1018.7 1018.6 0.4
17/11:05pm 15.2 9.6 10.0 71 2.7 NNE 30 48 16 26 1018.3 1018.2 0.4
17/11:00pm 15.4 8.7 9.6 68 3.0 NNE 35 50 19 27 1018.3 1018.2 0.4
17/10:30pm 15.4 10.5 9.8 69 2.9 NNE 26 35 14 19 1019.8 1019.7 0.4
17/10:10pm 14.8 9.8 10.8 77 2.1 N 28 41 15 22 1019.6 1019.5 0.2
17/10:00pm 14.7 12.3 11.3 80 1.8 NNE 15 20 8 11 1020.8 1020.8 0.2
17/09:30pm 15.9 13.3 10.8 71 2.7 ESE 15 19 8 10 1021.2 1021.2 0.0
17/09:00pm 16.8 15.0 9.5 62 3.8 SE 9 19 5 10 1021.2 1021.2 0.0
17/08:30pm 16.6 15.3 10.1 65 3.4 E 7 11 4 6 1020.5 1020.5 0.0
17/08:00pm 17.3 14.7 9.2 59 4.2 ENE 13 22 7 12 1019.4 1019.3 0.0
17/07:30pm 17.8 14.3 8.7 55 4.7 E 17 26 9 14 1018.6 1018.5 0.0
17/07:00pm 18.6 15.8 8.5 52 5.2 NE 13 20 7 11 1018.6 1018.5 0.0
17/06:30pm 18.9 16.3 9.4 54 5.0 NE 13 24 7 13 1018.2 1018.1 0.0
17/06:00pm 18.9 17.2 11.2 61 4.2 E 11 17 6 9 1018.2 1018.1 0.0
17/05:30pm 19.0 15.8 11.3 61 4.2 ESE 19 28 10 15 1017.5 1017.4 0.0
17/05:00pm 18.8 15.7 12.3 66 3.6 ESE 20 28 11 15 1016.9 1016.8 0.0
17/04:30pm 19.1 15.6 12.1 64 3.9 ESE 22 30 12 16 1017.4 1017.3 0.0
17/04:00pm 19.0 15.1 12.2 64 3.8 ESE 24 33 13 18 1017.1 1017.0 0.0
17/03:30pm 19.7 15.4 12.0 61 4.3 ESE 26 37 14 20 1017.1 1017.0 0.0
17/03:00pm 20.1 15.4 12.0 59 4.5 SE 28 39 15 21 1017.1 1017.0 0.0
17/02:30pm 20.9 16.5 11.7 55 5.1 SE 26 39 14 21 1017.1 1017.0 0.0
17/02:00pm 23.8 20.0 7.6 35 8.5 ESE 17 24 9 13 1017.5 1017.4 0.0
17/01:30pm 24.6 20.7 5.5 29 9.7 ENE 15 28 8 15 1017.9 1017.8 0.0
17/01:00pm 24.5 21.2 6.5 31 9.3 ENE 13 20 7 11 1018.3 1018.2 0.0
17/12:30pm 24.1 21.4 7.2 33 8.8 NNE 11 20 6 11 1018.8 1018.7 0.0
17/12:00pm 22.8 19.5 6.6 35 8.3 ENE 13 22 7 12 1019.2 1019.1 0.0
17/11:30am 22.4 19.4 7.6 38 7.7 NE 13 19 7 10 1019.8 1019.7 0.0
17/11:00am 21.3 17.9 7.5 41 7.1 NE 15 20 8 11 1020.3 1020.3 0.0
17/10:30am 20.6 17.2 7.8 43 6.6 NNE 15 24 8 13 1020.8 1020.8 0.0
17/10:00am 19.5 15.4 8.0 47 5.9 NNE 19 28 10 15 1021.2 1021.2 0.0
17/09:30am 18.1 14.2 8.6 54 4.9 NNE 19 26 10 14 1021.5 1021.5 0.0
17/09:00am 16.4 12.4 8.3 58 4.1 NNE 19 28 10 15 1021.7 1021.7 0.0
17/08:30am 15.2 11.7 8.7 65 3.3 NE 17 28 9 15 1021.8 1021.8 0.0
17/08:00am 14.0 9.9 8.8 71 2.6 NNE 20 32 11 17 1021.8 1021.8 0.0
17/07:30am 13.5 10.0 8.9 74 2.3 NE 17 28 9 15 1021.7 1021.7 0.0
17/07:00am 12.5 10.3 9.5 82 1.5 E 11 17 6 9 1021.6 1021.6 0.0
17/06:30am 11.3 9.1 9.5 89 0.9 E 11 15 6 8 1021.3 1021.3 0.0
17/06:00am 10.7 8.1 9.5 92 0.6 E 13 19 7 10 1021.3 1021.3 0.0
17/05:30am 10.7 8.0 9.1 90 0.8 E 13 20 7 11 1021.3 1021.3 0.0
17/05:00am 11.0 8.4 9.2 89 0.9 E 13 17 7 9 1021.3 1021.3 0.0
17/04:30am 9.0 6.5 8.4 96 0.3 NNE 11 13 6 7 1021.2 1021.2 0.0
17/04:28am 9.0 6.5 8.2 95 0.4 NNE 11 13 6 7 1021.1 1021.1 0.0
17/04:00am 8.8 6.7 8.2 96 0.3 NE 9 15 5 8 1021.0 1021.0 0.0
17/03:57am 8.7 6.6 8.1 96 0.3 NE 9 11 5 6 1021.1 1021.1 0.0
17/03:30am 8.5 5.5 7.7 95 0.4 NNE 13 20 7 11 1021.2 1021.2 0.0
17/03:16am 8.4 5.3 7.3 93 0.5 NE 13 19 7 10 1021.1 1021.1 0.0
17/03:00am 8.4 5.9 6.7 89 0.8 NE 9 15 5 8 1021.3 1021.3 0.0
17/02:30am 8.7 5.8 6.5 86 1.0 E 11 15 6 8 1021.1 1021.1 0.0
17/02:00am 8.4 5.8 6.2 86 1.0 ESE 9 11 5 6 1021.4 1021.4 0.0
17/01:30am 9.0 6.8 6.4 84 1.2 E 7 9 4 5 1021.4 1021.4 0.0
17/01:00am 9.2 6.7 6.4 83 1.3 E 9 11 5 6 1021.6 1021.6 0.0
17/12:30am 9.3 6.7 6.3 81 1.4 E 9 13 5 7 1021.7 1021.7 0.0
17/12:00am 9.7 6.7 6.2 79 1.6 E 11 15 6 8 1021.9 1021.9 0.0
 
Date/Time
WST
Temp
°C
App
Temp
°C
Dew
Point
Rel
Hum
%
Delta-T
°C
Wind Press
QNH
hPa
Press
MSL
hPa
Rain
since 9 am
mm
Dir
 
Spd
km/h
Gust
km/h
Spd
kts
Gust
kts
16/11:30pm 10.3 7.0 6.2 76 1.9 ENE 13 19 7 10 1022.0 1022.0 0.0
16/11:00pm 10.1 7.1 6.2 77 1.8 NE 11 15 6 8 1022.1 1022.1 0.0
16/10:30pm 10.7 8.1 5.9 72 2.2 ENE 9 13 5 7 1022.1 1022.1 0.0
16/10:00pm 11.1 8.4 5.7 69 2.5 ENE 9 13 5 7 1022.4 1022.4 0.0
16/09:30pm 11.4 8.4 6.0 69 2.5 ENE 11 17 6 9 1022.6 1022.6 0.0
16/09:00pm 11.7 9.2 6.4 70 2.5 ENE 9 17 5 9 1022.6 1022.6 0.0
16/08:30pm 12.2 9.0 6.7 69 2.6 E 13 20 7 11 1022.4 1022.4 0.0
16/08:00pm 12.9 9.6 6.6 65 3.0 E 13 19 7 10 1022.3 1022.3 0.0
16/07:30pm 13.6 10.6 7.5 66 3.0 E 13 24 7 13 1022.1 1022.1 0.0
16/07:00pm 14.4 10.3 7.7 64 3.3 ESE 19 28 10 15 1022.0 1022.0 0.0
16/06:30pm 14.6 10.2 7.5 62 3.5 ESE 20 32 11 17 1021.7 1021.7 0.0
16/06:00pm 14.9 10.1 7.4 61 3.7 ESE 22 30 12 16 1021.5 1021.5 0.0
16/05:30pm 15.3 10.6 7.6 60 3.8 ESE 22 30 12 16 1021.4 1021.4 0.0
16/05:00pm 15.6 10.5 7.5 58 4.0 SE 24 32 13 17 1021.1 1021.1 0.0
16/04:30pm 15.9 10.4 7.7 58 4.1 SE 26 33 14 18 1021.0 1021.0 0.0
16/04:00pm 16.4 11.3 7.8 56 4.3 SSE 24 32 13 17 1020.9 1020.9 0.0
16/03:30pm 16.6 12.4 8.3 58 4.2 SE 20 30 11 16 1020.9 1020.9 0.0
16/03:00pm 16.4 11.2 7.3 55 4.5 SE 24 30 13 16 1021.0 1021.0 0.0
16/02:30pm 16.8 11.8 6.6 51 5.0 SE 22 30 12 16 1021.4 1021.4 0.0
16/02:00pm 17.1 12.1 6.5 49 5.2 SSE 22 28 12 15 1021.6 1021.6 0.0
16/01:30pm 16.6 11.5 5.8 49 5.2 SE 22 32 12 17 1021.8 1021.8 0.0
16/01:00pm 17.0 12.4 6.4 49 5.2 SE 20 28 11 15 1021.8 1021.8 0.0
16/12:30pm 16.7 12.0 6.2 50 5.1 SE 20 30 11 16 1022.1 1022.1 0.0
16/12:00pm 16.8 12.6 5.8 48 5.3 SSE 17 22 9 12 1022.7 1022.7 0.0
16/11:30am 16.8 13.3 5.3 46 5.5 SE 13 19 7 10 1023.1 1023.1 0.0
16/11:00am 16.8 13.0 5.6 47 5.4 SE 15 19 8 10 1023.5 1023.5 0.0
16/10:30am 16.3 12.9 5.9 50 5.0 SSE 13 17 7 9 1024.0 1024.0 0.0
16/10:00am 16.4 13.4 5.8 49 5.1 SE 11 19 6 10 1024.2 1024.2 0.0
16/09:30am 17.2 14.9 5.6 46 5.6 NNE 7 13 4 7 1024.3 1024.3 0.0
16/09:00am 16.4 13.5 6.3 51 4.9 NNE 11 19 6 10 1024.1 1024.1 0.6
16/08:30am 15.0 13.1 8.9 67 3.1 N 9 15 5 8 1024.2 1024.2 0.6
16/08:00am 12.8 11.0 9.6 81 1.6 N 9 11 5 6 1024.2 1024.2 0.6

Other Formats:

Comma delimited format used in spreadsheet applications
http://www.bom.gov.au/fwo/IDW60801/IDW60801.94638.axf

JavaScript Object Notation format (JSON) in row-major order
http://www.bom.gov.au/fwo/IDW60801/IDW60801.94638.json